Atikokan, Canada
Current Conditions -  °F | °C
As of 10:11 AM on Wednesday 28 Jan 2015 (Local Time) from KCDD Reporting Station
Overcast Overcast  
Wind Chill: 18°   Ceiling: 1100
Heat Index: 25°   Visibility: 10mi
Dew Point: 21°   Wind: 6mph
Humidity: 86%   Direction: 160°SSE
Pressure: 29.94"   Gusts: NA
Location:  48.76°N, 91.59°W
Report Text: KCDD 281611Z AUTO 16005KT 10SM OVC011 M04/M06 A2994 RMK AO2
Loading
Personal Weather Stations






























Interactive Weather Map New forecast layout! Learn more

10-Day Weather Forecast

Advertisements
Track Severe Weather on mobile